createdAt,value
2023-01-27T00:01:06.561Z,-3.40
2023-01-27T00:03:34.602Z,-3.30
2023-01-27T00:06:04.751Z,-3.30
2023-01-27T00:08:32.713Z,-3.30
2023-01-27T00:11:19.807Z,-3.40
2023-01-27T00:13:47.638Z,-3.40
2023-01-27T00:16:15.646Z,-3.40
2023-01-27T00:18:43.517Z,-3.30
2023-01-27T00:21:29.268Z,-3.30
2023-01-27T00:24:14.910Z,-3.30
2023-01-27T00:26:44.144Z,-3.40
2023-01-27T00:29:12.067Z,-3.30
2023-01-27T00:31:57.484Z,-3.40
2023-01-27T00:34:25.346Z,-3.40
2023-01-27T00:36:53.217Z,-3.40
2023-01-27T00:39:20.996Z,-3.40
2023-01-27T00:41:50.144Z,-3.30
2023-01-27T00:44:18.123Z,-3.40
2023-01-27T00:46:46.051Z,-3.30
2023-01-27T00:49:13.898Z,-3.20
2023-01-27T00:51:41.877Z,-3.30
2023-01-27T00:54:10.110Z,-3.40
2023-01-27T00:56:38.238Z,-3.30
2023-01-27T00:59:07.667Z,-3.40
2023-01-27T01:01:36.001Z,-3.40
2023-01-27T01:04:04.097Z,-3.40
2023-01-27T01:06:32.096Z,-3.50
2023-01-27T01:09:00.113Z,-3.40
2023-01-27T01:11:28.370Z,-3.40
2023-01-27T01:13:56.796Z,-3.40
2023-01-27T01:16:26.659Z,-3.30
2023-01-27T01:18:54.926Z,-3.40
2023-01-27T01:21:23.032Z,-3.40
2023-01-27T01:23:51.014Z,-3.30
2023-01-27T01:26:19.531Z,-3.30
2023-01-27T01:28:48.136Z,-3.40
2023-01-27T01:31:18.780Z,-3.40
2023-01-27T01:33:49.046Z,-3.40
2023-01-27T01:36:20.706Z,-3.40
2023-01-27T01:38:49.164Z,-3.50
2023-01-27T01:41:20.005Z,-3.50
2023-01-27T01:43:48.439Z,-3.50
2023-01-27T01:46:16.697Z,-3.50
2023-01-27T01:48:49.355Z,-3.40
2023-01-27T01:51:21.483Z,-3.40
2023-01-27T01:53:54.143Z,-3.40
2023-01-27T01:56:26.952Z,-3.40
2023-01-27T01:58:56.861Z,-3.50
2023-01-27T02:01:24.743Z,-3.50
2023-01-27T02:03:57.785Z,-3.50
2023-01-27T02:06:26.214Z,-3.50
2023-01-27T02:08:55.559Z,-3.50
2023-01-27T02:11:23.500Z,-3.50
2023-01-27T02:13:52.616Z,-3.50
2023-01-27T02:16:20.486Z,-3.50
2023-01-27T02:18:49.689Z,-3.50
2023-01-27T02:21:19.155Z,-3.50
2023-01-27T02:23:53.551Z,-3.50
2023-01-27T02:26:26.780Z,-3.50
2023-01-27T02:28:59.594Z,-3.50
2023-01-27T02:31:27.759Z,-3.50
2023-01-27T02:33:59.179Z,-3.50
2023-01-27T02:36:30.732Z,-3.50
2023-01-27T02:39:00.567Z,-3.50
2023-01-27T02:41:35.249Z,-3.50
2023-01-27T02:44:03.082Z,-3.50
2023-01-27T02:46:31.104Z,-3.60
2023-01-27T02:48:59.008Z,-3.50
2023-01-27T02:51:26.896Z,-3.50
2023-01-27T02:53:54.858Z,-3.60
2023-01-27T02:56:23.597Z,-3.60
2023-01-27T02:58:52.745Z,-3.50
2023-01-27T03:01:20.838Z,-3.60
2023-01-27T03:03:48.742Z,-3.50
2023-01-27T03:06:17.103Z,-3.50
2023-01-27T03:08:45.374Z,-3.50
2023-01-27T03:11:13.582Z,-3.50
2023-01-27T03:13:41.676Z,-3.50
2023-01-27T03:16:30.334Z,-3.50
2023-01-27T03:18:58.138Z,-3.50
2023-01-27T03:21:26.047Z,-3.50
2023-01-27T03:23:53.906Z,-3.50
2023-01-27T03:26:21.698Z,-3.50
2023-01-27T03:29:09.520Z,-3.40
2023-01-27T03:31:38.784Z,-3.40
2023-01-27T03:34:06.655Z,-3.50
2023-01-27T03:36:52.398Z,-3.50
2023-01-27T03:39:37.841Z,-3.50
2023-01-27T03:42:24.418Z,-3.50
2023-01-27T03:45:10.055Z,-3.40
2023-01-27T03:47:39.341Z,-3.40
2023-01-27T03:50:11.363Z,-3.50
2023-01-27T03:52:39.302Z,-3.40
2023-01-27T03:55:09.500Z,-3.40
2023-01-27T03:57:38.127Z,-3.40
2023-01-27T04:00:06.792Z,-3.50
2023-01-27T04:02:52.482Z,-3.40
2023-01-27T04:05:39.119Z,-3.40
2023-01-27T04:08:07.350Z,-3.50
2023-01-27T04:10:35.156Z,-3.40
2023-01-27T04:13:01.965Z,-3.50
2023-01-27T04:15:29.745Z,-3.50
2023-01-27T04:17:57.510Z,-3.50
2023-01-27T04:20:26.696Z,-3.60
2023-01-27T04:22:54.483Z,-3.60
2023-01-27T04:25:22.286Z,-3.60
2023-01-27T04:27:50.069Z,-3.60
2023-01-27T04:30:18.456Z,-3.60
2023-01-27T04:32:46.244Z,-3.60
2023-01-27T04:35:14.715Z,-3.50
2023-01-27T04:37:44.157Z,-3.50
2023-01-27T04:40:13.319Z,-3.50
2023-01-27T04:42:41.133Z,-3.50
2023-01-27T04:45:10.282Z,-3.50
2023-01-27T04:47:38.065Z,-3.50
2023-01-27T04:50:06.728Z,-3.50
2023-01-27T04:52:34.554Z,-3.50
2023-01-27T04:55:03.757Z,-3.60
2023-01-27T04:57:31.555Z,-3.60
2023-01-27T04:59:59.369Z,-3.60
2023-01-27T05:02:27.139Z,-3.60
2023-01-27T05:04:54.909Z,-3.60
2023-01-27T05:07:22.794Z,-3.60
2023-01-27T05:09:50.755Z,-3.60
2023-01-27T05:12:19.849Z,-3.60
2023-01-27T05:14:47.694Z,-3.50
2023-01-27T05:17:15.791Z,-3.50
2023-01-27T05:19:43.584Z,-3.50
2023-01-27T05:22:11.962Z,-3.50
2023-01-27T05:24:39.913Z,-3.50
2023-01-27T05:27:07.839Z,-3.50
2023-01-27T05:29:36.973Z,-3.50
2023-01-27T05:32:05.026Z,-3.50
2023-01-27T05:34:32.922Z,-3.50
2023-01-27T05:37:00.700Z,-3.50
2023-01-27T05:39:28.504Z,-3.50
2023-01-27T05:41:56.287Z,-3.60
2023-01-27T05:44:24.278Z,-3.60
2023-01-27T05:46:53.441Z,-3.60
2023-01-27T05:49:21.387Z,-3.60
2023-01-27T05:51:49.200Z,-3.60
2023-01-27T05:54:17.010Z,-3.60
2023-01-27T05:56:44.823Z,-3.60
2023-01-27T05:59:13.011Z,-3.60
2023-01-27T06:01:40.999Z,-3.60
2023-01-27T06:04:11.449Z,-3.60
2023-01-27T06:06:39.231Z,-3.60
2023-01-27T06:09:07.019Z,-3.60
2023-01-27T06:11:34.805Z,-3.60
2023-01-27T06:14:02.672Z,-3.60
2023-01-27T06:16:30.571Z,-3.60
2023-01-27T06:18:58.773Z,-3.70
2023-01-27T06:21:27.968Z,-3.70
2023-01-27T06:23:55.895Z,-3.70
2023-01-27T06:26:23.759Z,-3.60
2023-01-27T06:28:51.544Z,-3.70
2023-01-27T06:31:21.869Z,-3.60
2023-01-27T06:33:50.240Z,-3.60
2023-01-27T06:36:20.823Z,-3.70
2023-01-27T06:38:50.572Z,-3.70
2023-01-27T06:41:19.020Z,-3.70
2023-01-27T06:43:47.198Z,-3.70
2023-01-27T06:46:15.693Z,-3.70
2023-01-27T06:48:43.538Z,-3.70
2023-01-27T06:51:11.616Z,-3.70
2023-01-27T06:53:39.440Z,-3.70
2023-01-27T06:56:09.329Z,-3.70
2023-01-27T06:58:37.090Z,-3.70
2023-01-27T07:01:06.477Z,-3.70
2023-01-27T07:06:01.255Z,-3.70
2023-01-27T07:08:29.037Z,-3.70
2023-01-27T07:10:56.957Z,-3.70
2023-01-27T07:13:26.094Z,-3.70
2023-01-27T07:15:57.132Z,-3.70
2023-01-27T07:18:25.022Z,-3.60
2023-01-27T07:20:52.917Z,-3.70
2023-01-27T07:23:20.783Z,-3.60
2023-01-27T07:25:48.769Z,-3.60
2023-01-27T07:28:16.570Z,-3.60
2023-01-27T07:30:45.714Z,-3.70
2023-01-27T07:33:15.309Z,-3.70
2023-01-27T07:35:43.633Z,-3.70
2023-01-27T07:38:11.919Z,-3.70
2023-01-27T07:40:39.761Z,-3.60
2023-01-27T07:43:07.844Z,-3.70
2023-01-27T07:45:35.932Z,-3.70
2023-01-27T07:48:06.659Z,-3.70
2023-01-27T07:50:34.508Z,-3.70
2023-01-27T07:53:02.979Z,-3.70
2023-01-27T07:55:31.628Z,-3.60
2023-01-27T07:57:59.598Z,-3.60
2023-01-27T08:00:28.268Z,-3.60
2023-01-27T08:02:57.620Z,-3.60
2023-01-27T08:05:27.460Z,-3.60
2023-01-27T08:07:58.817Z,-3.60
2023-01-27T08:10:27.353Z,-3.70
2023-01-27T08:12:55.251Z,-3.70
2023-01-27T08:15:23.193Z,-3.70
2023-01-27T08:17:55.379Z,-3.70
2023-01-27T08:20:23.816Z,-3.60
2023-01-27T08:22:52.952Z,-3.60
2023-01-27T08:25:21.112Z,-3.60
2023-01-27T08:27:51.510Z,-3.50
2023-01-27T08:30:20.460Z,-3.50
2023-01-27T08:32:48.757Z,-3.50
2023-01-27T08:35:16.617Z,-3.50
2023-01-27T08:37:45.154Z,-3.50
2023-01-27T08:40:15.829Z,-3.50
2023-01-27T08:42:43.699Z,-3.50
2023-01-27T08:45:11.733Z,-3.50
2023-01-27T08:47:39.606Z,-3.40
2023-01-27T08:50:08.337Z,-3.40
2023-01-27T08:52:36.222Z,-3.40
2023-01-27T08:55:04.205Z,-3.50
2023-01-27T08:57:35.255Z,-3.50
2023-01-27T09:00:06.997Z,-3.50
2023-01-27T09:02:35.278Z,-3.40
2023-01-27T09:05:03.217Z,-3.40
2023-01-27T09:07:31.052Z,-3.40
2023-01-27T09:10:13.135Z,-3.40
2023-01-27T09:12:48.013Z,-3.40
2023-01-27T09:15:16.184Z,-3.30
2023-01-27T09:17:44.782Z,-3.20
2023-01-27T09:20:13.791Z,-3.20
2023-01-27T09:22:42.937Z,-3.30
2023-01-27T09:25:14.689Z,-3.40
2023-01-27T09:27:42.581Z,-3.40
2023-01-27T09:30:14.333Z,-3.30
2023-01-27T09:32:42.877Z,-3.30
2023-01-27T09:35:11.783Z,-3.30
2023-01-27T09:37:45.680Z,-3.30
2023-01-27T09:40:22.944Z,-3.30
2023-01-27T09:43:20.142Z,-3.40
2023-01-27T09:46:10.937Z,-3.40
2023-01-27T09:49:04.805Z,-3.30
2023-01-27T09:51:43.519Z,-3.20
2023-01-27T09:54:24.521Z,-3.30
2023-01-27T09:56:59.750Z,-3.20
2023-01-27T09:59:48.025Z,-3.20
2023-01-27T10:02:31.256Z,-3.10
2023-01-27T10:05:29.475Z,-3.20
2023-01-27T10:08:18.381Z,-3.20
2023-01-27T10:11:09.588Z,-3.20
2023-01-27T10:13:48.334Z,-3.10
2023-01-27T10:16:34.551Z,-3.10
2023-01-27T10:19:14.638Z,-3.00
2023-01-27T10:21:50.623Z,-3.00
2023-01-27T10:24:33.246Z,-2.90
2023-01-27T10:27:08.916Z,-3.00
2023-01-27T10:29:45.298Z,-3.10
2023-01-27T10:32:26.618Z,-3.10
2023-01-27T10:35:08.763Z,-3.10
2023-01-27T10:37:47.492Z,-3.10
2023-01-27T10:40:22.420Z,-3.00
2023-01-27T10:43:02.025Z,-3.10
2023-01-27T10:45:37.588Z,-3.10
2023-01-27T10:48:20.860Z,-3.20
2023-01-27T10:50:56.902Z,-3.20
2023-01-27T10:53:33.299Z,-3.20
2023-01-27T10:56:07.107Z,-3.10
2023-01-27T10:58:48.895Z,-3.10
2023-01-27T11:01:22.279Z,-3.00
2023-01-27T11:03:56.601Z,-3.00
2023-01-27T11:06:29.514Z,-3.00
2023-01-27T11:09:08.412Z,-3.00
2023-01-27T11:11:46.176Z,-3.10
2023-01-27T11:14:22.540Z,-3.00
2023-01-27T11:16:52.987Z,-3.00
2023-01-27T11:19:31.869Z,-3.00
2023-01-27T11:22:08.043Z,-3.00
2023-01-27T11:24:45.108Z,-3.00
2023-01-27T11:27:21.183Z,-3.10
2023-01-27T11:29:55.656Z,-3.20
2023-01-27T11:32:35.207Z,-3.20
2023-01-27T11:35:05.729Z,-3.20
2023-01-27T11:37:38.383Z,-3.20
2023-01-27T11:40:15.777Z,-3.20
2023-01-27T11:42:44.316Z,-3.20
2023-01-27T11:45:16.400Z,-3.20
2023-01-27T11:47:46.600Z,-3.20
2023-01-27T11:50:17.122Z,-3.30
2023-01-27T11:52:49.429Z,-3.30
2023-01-27T11:55:20.018Z,-3.30
2023-01-27T11:57:52.124Z,-3.30
2023-01-27T12:00:25.166Z,-3.30
2023-01-27T12:03:00.433Z,-3.30
2023-01-27T12:05:32.385Z,-3.20
2023-01-27T12:08:03.312Z,-3.10
2023-01-27T12:10:32.902Z,-3.20
2023-01-27T12:13:08.356Z,-3.20
2023-01-27T12:15:37.158Z,-3.20
2023-01-27T12:18:14.664Z,-3.10
2023-01-27T12:20:45.034Z,-3.10
2023-01-27T12:23:26.366Z,-3.00
2023-01-27T12:25:56.505Z,-2.90
2023-01-27T12:28:30.921Z,-2.90
2023-01-27T12:31:05.388Z,-2.90
2023-01-27T12:33:35.275Z,-2.80
2023-01-27T12:36:15.672Z,-2.90
2023-01-27T12:38:52.671Z,-3.00
2023-01-27T12:41:26.079Z,-3.00
2023-01-27T12:44:00.274Z,-3.00
2023-01-27T12:46:29.748Z,-3.00
2023-01-27T12:49:03.684Z,-2.90
2023-01-27T12:51:41.614Z,-3.00
2023-01-27T12:54:21.758Z,-3.00
2023-01-27T12:56:50.062Z,-3.10
2023-01-27T12:59:21.350Z,-3.00
2023-01-27T13:02:00.613Z,-3.00
2023-01-27T13:04:28.969Z,-3.10
2023-01-27T13:07:04.789Z,-3.00
2023-01-27T13:09:37.320Z,-3.10
2023-01-27T13:12:17.522Z,-3.10
2023-01-27T13:14:45.419Z,-3.10
2023-01-27T13:17:31.876Z,-3.00
2023-01-27T13:20:04.470Z,-3.00
2023-01-27T13:22:41.211Z,-3.10
2023-01-27T13:25:18.475Z,-3.10
2023-01-27T13:27:47.547Z,-3.10
2023-01-27T13:30:23.572Z,-3.00
2023-01-27T13:32:55.501Z,-3.10
2023-01-27T13:35:27.283Z,-3.00
2023-01-27T13:38:03.110Z,-3.00
2023-01-27T13:40:38.041Z,-3.00
2023-01-27T13:43:11.632Z,-3.00
2023-01-27T13:45:43.704Z,-3.10
2023-01-27T13:48:17.940Z,-3.10
2023-01-27T13:50:48.554Z,-3.00
2023-01-27T13:53:19.305Z,-3.00
2023-01-27T13:56:02.851Z,-2.90
2023-01-27T13:58:42.911Z,-2.70
2023-01-27T14:01:23.934Z,-2.80
2023-01-27T14:04:28.583Z,-2.70
2023-01-27T14:07:14.389Z,-2.90
2023-01-27T14:09:53.329Z,-2.80
2023-01-27T14:12:32.675Z,-2.90
2023-01-27T14:15:13.876Z,-2.90
2023-01-27T14:17:46.971Z,-2.90
2023-01-27T14:20:30.896Z,-2.90
2023-01-27T14:23:32.357Z,-2.80
2023-01-27T14:26:11.137Z,-2.80
2023-01-27T14:28:53.309Z,-2.80
2023-01-27T14:31:24.523Z,-2.70
2023-01-27T14:34:03.021Z,-2.80
2023-01-27T14:36:38.769Z,-2.90
2023-01-27T14:39:17.988Z,-2.90
2023-01-27T14:41:53.857Z,-2.90
2023-01-27T14:44:43.585Z,-2.90
2023-01-27T14:47:18.055Z,-2.90
2023-01-27T14:49:59.557Z,-2.90
2023-01-27T14:52:37.435Z,-2.90
2023-01-27T14:55:22.259Z,-2.90
2023-01-27T14:57:58.028Z,-2.80
2023-01-27T15:00:43.539Z,-2.80
2023-01-27T15:03:41.965Z,-2.80
2023-01-27T15:06:16.653Z,-2.80
2023-01-27T15:08:53.823Z,-2.70
2023-01-27T15:11:41.749Z,-2.70
2023-01-27T15:14:30.605Z,-2.80
2023-01-27T15:17:15.129Z,-2.80
2023-01-27T15:20:01.716Z,-2.90
2023-01-27T15:22:53.507Z,-2.90
2023-01-27T15:25:34.847Z,-2.80
2023-01-27T15:28:03.655Z,-2.80
2023-01-27T15:30:34.520Z,-2.80
2023-01-27T15:33:03.807Z,-2.80
2023-01-27T15:35:37.968Z,-2.90
2023-01-27T15:38:20.660Z,-2.90
2023-01-27T15:41:01.678Z,-2.90
2023-01-27T15:43:31.140Z,-2.80
2023-01-27T15:46:18.053Z,-2.80
2023-01-27T15:48:48.511Z,-2.90
2023-01-27T15:51:19.312Z,-2.90
2023-01-27T15:53:51.480Z,-2.80
2023-01-27T15:56:19.514Z,-2.90
2023-01-27T15:58:54.697Z,-2.90
2023-01-27T16:01:27.802Z,-2.90
2023-01-27T16:04:08.805Z,-2.90
2023-01-27T16:06:37.145Z,-2.90
2023-01-27T16:09:08.827Z,-2.90
2023-01-27T16:11:42.337Z,-2.90
2023-01-27T16:14:37.936Z,-2.90
2023-01-27T16:17:18.964Z,-3.00
2023-01-27T16:19:58.463Z,-3.00
2023-01-27T16:22:28.657Z,-3.00
2023-01-27T16:25:00.896Z,-3.00
2023-01-27T16:27:43.445Z,-3.00
2023-01-27T16:30:20.256Z,-2.90
2023-01-27T16:33:06.241Z,-2.90
2023-01-27T16:35:43.756Z,-3.00
2023-01-27T16:38:20.998Z,-2.90
2023-01-27T16:40:52.116Z,-2.90
2023-01-27T16:43:23.412Z,-2.90
2023-01-27T16:45:53.541Z,-3.00
2023-01-27T16:48:32.172Z,-3.00
2023-01-27T16:51:13.396Z,-2.90
2023-01-27T16:53:46.103Z,-2.90
2023-01-27T16:56:21.689Z,-2.90
2023-01-27T16:58:51.101Z,-3.00
2023-01-27T17:01:22.694Z,-2.90
2023-01-27T17:03:51.147Z,-2.90
2023-01-27T17:06:22.342Z,-2.90
2023-01-27T17:08:50.782Z,-2.90
2023-01-27T17:11:23.588Z,-2.80
2023-01-27T17:13:57.158Z,-2.90
2023-01-27T17:16:27.244Z,-2.90
2023-01-27T17:18:57.812Z,-2.90
2023-01-27T17:21:34.094Z,-2.90
2023-01-27T17:24:05.583Z,-2.90
2023-01-27T17:26:35.288Z,-3.00
2023-01-27T17:29:03.513Z,-2.90
2023-01-27T17:31:35.479Z,-2.90
2023-01-27T17:34:03.486Z,-3.00
2023-01-27T17:36:32.696Z,-3.00
2023-01-27T17:39:01.523Z,-3.00
2023-01-27T17:41:34.769Z,-3.00
2023-01-27T17:44:04.202Z,-3.00
2023-01-27T17:46:35.003Z,-3.00
2023-01-27T17:49:05.944Z,-3.00
2023-01-27T17:51:41.622Z,-3.00
2023-01-27T17:54:21.276Z,-3.00
2023-01-27T17:56:52.195Z,-3.00
2023-01-27T17:59:23.126Z,-3.10
2023-01-27T18:01:53.140Z,-3.10
2023-01-27T18:04:22.617Z,-3.10
2023-01-27T18:06:52.598Z,-3.10
2023-01-27T18:09:25.418Z,-3.10
2023-01-27T18:11:56.439Z,-3.10
2023-01-27T18:14:24.375Z,-3.10
2023-01-27T18:17:03.333Z,-3.10
2023-01-27T18:19:31.661Z,-3.00
2023-01-27T18:22:11.809Z,-3.00
2023-01-27T18:24:41.027Z,-3.10
2023-01-27T18:27:24.511Z,-3.00
2023-01-27T18:29:55.643Z,-3.10
2023-01-27T18:32:25.472Z,-3.10
2023-01-27T18:34:55.479Z,-3.10
2023-01-27T18:37:29.039Z,-3.10
2023-01-27T18:39:57.590Z,-3.10
2023-01-27T18:42:26.242Z,-3.10
2023-01-27T18:44:54.469Z,-3.10
2023-01-27T18:47:31.107Z,-3.10
2023-01-27T18:50:13.705Z,-3.00
2023-01-27T18:52:43.213Z,-3.10
2023-01-27T18:55:17.123Z,-3.10
2023-01-27T18:57:46.078Z,-3.20
2023-01-27T19:00:16.416Z,-3.10
2023-01-27T19:02:46.753Z,-3.10
2023-01-27T19:05:21.004Z,-3.10
2023-01-27T19:07:50.869Z,-3.10
2023-01-27T19:10:20.802Z,-3.10
2023-01-27T19:12:48.603Z,-3.10
2023-01-27T19:15:16.929Z,-3.10
2023-01-27T19:17:46.547Z,-3.10
2023-01-27T19:20:16.708Z,-3.10
2023-01-27T19:22:44.643Z,-3.10
2023-01-27T19:25:14.382Z,-3.00
2023-01-27T19:27:44.381Z,-3.00
2023-01-27T19:30:36.138Z,-3.00
2023-01-27T19:33:04.500Z,-3.10
2023-01-27T19:35:32.768Z,-3.10
2023-01-27T19:38:03.516Z,-3.10
2023-01-27T19:40:32.887Z,-3.10
2023-01-27T19:43:00.857Z,-3.10
2023-01-27T19:45:29.088Z,-3.00
2023-01-27T19:47:59.646Z,-3.00
2023-01-27T19:50:30.341Z,-3.00
2023-01-27T19:52:58.664Z,-3.00
2023-01-27T19:55:26.735Z,-3.00
2023-01-27T19:57:55.852Z,-3.00
2023-01-27T20:00:27.404Z,-3.00
2023-01-27T20:02:55.800Z,-2.90
2023-01-27T20:05:24.455Z,-2.90
2023-01-27T20:07:53.556Z,-3.00
2023-01-27T20:10:23.556Z,-3.00
2023-01-27T20:12:57.789Z,-3.00
2023-01-27T20:15:27.070Z,-3.00
2023-01-27T20:17:55.464Z,-3.00
2023-01-27T20:20:24.801Z,-3.00
2023-01-27T20:22:53.107Z,-3.00
2023-01-27T20:25:23.062Z,-3.00
2023-01-27T20:27:53.573Z,-2.90
2023-01-27T20:30:24.392Z,-3.00
2023-01-27T20:32:55.030Z,-2.90
2023-01-27T20:35:23.906Z,-3.00
2023-01-27T20:37:53.275Z,-3.00
2023-01-27T20:40:23.306Z,-3.00
2023-01-27T20:42:51.783Z,-3.00
2023-01-27T20:45:20.389Z,-2.90
2023-01-27T20:47:51.296Z,-3.00
2023-01-27T20:50:19.572Z,-2.90
2023-01-27T20:52:48.332Z,-2.90
2023-01-27T20:55:17.844Z,-2.90
2023-01-27T20:57:45.970Z,-2.90
2023-01-27T21:00:17.768Z,-2.90
2023-01-27T21:02:45.637Z,-3.00
2023-01-27T21:05:15.579Z,-3.00
2023-01-27T21:07:43.824Z,-2.90
2023-01-27T21:10:12.654Z,-2.90
2023-01-27T21:12:40.895Z,-2.90
2023-01-27T21:15:10.399Z,-3.00
2023-01-27T21:17:38.395Z,-3.00
2023-01-27T21:20:07.417Z,-2.90
2023-01-27T21:22:36.654Z,-2.90
2023-01-27T21:25:04.853Z,-2.90
2023-01-27T21:27:32.815Z,-3.00
2023-01-27T21:30:00.619Z,-3.00
2023-01-27T21:32:28.413Z,-3.00
2023-01-27T21:34:58.580Z,-2.90
2023-01-27T21:37:26.543Z,-2.90
2023-01-27T21:39:55.800Z,-2.90
2023-01-27T21:42:40.939Z,-2.90
2023-01-27T21:45:15.060Z,-2.80
2023-01-27T21:47:43.266Z,-2.90
2023-01-27T21:50:11.972Z,-2.90
2023-01-27T21:52:42.215Z,-2.90
2023-01-27T21:55:13.968Z,-2.90
2023-01-27T21:57:43.277Z,-2.90
2023-01-27T22:00:14.948Z,-2.90
2023-01-27T22:02:43.679Z,-2.90
2023-01-27T22:05:13.150Z,-3.00
2023-01-27T22:07:41.772Z,-2.90
2023-01-27T22:10:14.631Z,-3.00
2023-01-27T22:12:42.513Z,-2.90
2023-01-27T22:15:11.885Z,-2.90
2023-01-27T22:17:39.974Z,-2.90
2023-01-27T22:20:09.391Z,-2.90
2023-01-27T22:22:37.309Z,-2.90
2023-01-27T22:25:05.625Z,-2.80
2023-01-27T22:27:34.993Z,-2.80
2023-01-27T22:30:02.918Z,-2.90
2023-01-27T22:32:30.865Z,-2.90
2023-01-27T22:34:58.688Z,-2.80
2023-01-27T22:37:26.509Z,-2.80
2023-01-27T22:39:54.413Z,-2.80
2023-01-27T22:42:22.444Z,-2.80
2023-01-27T22:44:52.258Z,-2.90
2023-01-27T22:47:20.320Z,-2.80
2023-01-27T22:49:48.239Z,-2.80
2023-01-27T22:52:16.607Z,-2.80
2023-01-27T22:54:44.601Z,-2.90
2023-01-27T22:57:12.389Z,-2.90
2023-01-27T22:59:40.246Z,-2.90
2023-01-27T23:02:09.482Z,-2.90
2023-01-27T23:04:37.283Z,-2.90
2023-01-27T23:07:05.078Z,-2.90
2023-01-27T23:09:33.192Z,-2.80
2023-01-27T23:12:01.047Z,-2.80
2023-01-27T23:14:28.910Z,-2.80
2023-01-27T23:16:58.498Z,-2.80
2023-01-27T23:19:27.725Z,-2.90
2023-01-27T23:21:55.551Z,-2.90
2023-01-27T23:24:23.410Z,-2.80
2023-01-27T23:26:51.309Z,-2.90
2023-01-27T23:29:24.655Z,-2.90
2023-01-27T23:31:53.637Z,-2.90
2023-01-27T23:34:21.668Z,-2.90
2023-01-27T23:36:50.966Z,-2.90
2023-01-27T23:39:18.882Z,-2.90
2023-01-27T23:41:46.691Z,-2.80
2023-01-27T23:44:14.733Z,-2.90
2023-01-27T23:46:43.328Z,-2.90
2023-01-27T23:49:12.352Z,-2.90
2023-01-27T23:51:40.343Z,-2.90
2023-01-27T23:54:09.515Z,-2.90
2023-01-27T23:56:37.488Z,-2.80
2023-01-27T23:59:05.295Z,-2.80
